sensor_id;sensor_type;location;lat;lon;timestamp;pressure;altitude;pressure_sealevel;temperature;humidity
57827;BME280;43656;57.746;11.780;2023-11-19T00:02:13;101432.59;;;2.07;88.64
57827;BME280;43656;57.746;11.780;2023-11-19T00:04:39;101419.13;;;2.20;88.92
57827;BME280;43656;57.746;11.780;2023-11-19T00:07:05;101421.94;;;2.19;88.66
57827;BME280;43656;57.746;11.780;2023-11-19T00:09:32;101410.44;;;2.18;87.99
57827;BME280;43656;57.746;11.780;2023-11-19T00:11:59;101412.06;;;2.30;88.00
57827;BME280;43656;57.746;11.780;2023-11-19T00:14:28;101408.66;;;2.19;88.61
57827;BME280;43656;57.746;11.780;2023-11-19T00:16:54;101401.00;;;2.25;88.51
57827;BME280;43656;57.746;11.780;2023-11-19T00:19:19;101396.91;;;2.21;88.39
57827;BME280;43656;57.746;11.780;2023-11-19T00:21:45;101381.06;;;2.10;87.90
57827;BME280;43656;57.746;11.780;2023-11-19T00:24:11;101352.28;;;2.05;87.76
57827;BME280;43656;57.746;11.780;2023-11-19T00:26:37;101384.03;;;2.17;88.83
57827;BME280;43656;57.746;11.780;2023-11-19T00:29:03;101352.34;;;2.25;87.82
57827;BME280;43656;57.746;11.780;2023-11-19T00:31:28;101356.31;;;2.30;88.49
57827;BME280;43656;57.746;11.780;2023-11-19T00:33:54;101356.72;;;2.56;86.74
57827;BME280;43656;57.746;11.780;2023-11-19T00:36:19;101351.44;;;2.66;86.04
57827;BME280;43656;57.746;11.780;2023-11-19T00:38:45;101339.22;;;2.54;86.74
57827;BME280;43656;57.746;11.780;2023-11-19T00:41:11;101353.38;;;2.64;87.00
57827;BME280;43656;57.746;11.780;2023-11-19T00:43:36;101346.09;;;2.56;86.66
57827;BME280;43656;57.746;11.780;2023-11-19T00:46:02;101265.41;;;1.86;88.64
57827;BME280;43656;57.746;11.780;2023-11-19T00:48:28;101317.78;;;2.15;89.02
57827;BME280;43656;57.746;11.780;2023-11-19T00:50:53;101325.38;;;2.50;88.55
57827;BME280;43656;57.746;11.780;2023-11-19T00:53:19;101318.59;;;2.37;89.26
57827;BME280;43656;57.746;11.780;2023-11-19T00:55:44;101316.69;;;2.48;88.05
57827;BME280;43656;57.746;11.780;2023-11-19T00:58:10;101305.94;;;2.50;87.84
57827;BME280;43656;57.746;11.780;2023-11-19T01:00:35;101300.34;;;2.53;88.05
57827;BME280;43656;57.746;11.780;2023-11-19T01:03:00;101301.03;;;2.55;88.71
57827;BME280;43656;57.746;11.780;2023-11-19T01:05:26;101307.66;;;2.70;88.18
57827;BME280;43656;57.746;11.780;2023-11-19T01:07:53;101277.13;;;2.55;87.85
57827;BME280;43656;57.746;11.780;2023-11-19T01:10:19;101296.44;;;2.57;88.30
57827;BME280;43656;57.746;11.780;2023-11-19T01:12:45;101287.81;;;2.74;87.57
57827;BME280;43656;57.746;11.780;2023-11-19T01:15:10;101270.50;;;2.90;87.40
57827;BME280;43656;57.746;11.780;2023-11-19T01:17:39;101257.50;;;2.96;86.58
57827;BME280;43656;57.746;11.780;2023-11-19T01:20:04;101268.88;;;3.08;86.52
57827;BME280;43656;57.746;11.780;2023-11-19T01:22:32;101249.38;;;3.08;86.63
57827;BME280;43656;57.746;11.780;2023-11-19T01:24:57;101231.38;;;3.01;85.81
57827;BME280;43656;57.746;11.780;2023-11-19T01:27:26;101249.94;;;3.11;86.99
57827;BME280;43656;57.746;11.780;2023-11-19T01:29:51;101236.25;;;3.25;85.99
57827;BME280;43656;57.746;11.780;2023-11-19T01:32:17;101221.69;;;3.20;86.44
57827;BME280;43656;57.746;11.780;2023-11-19T01:34:42;101224.34;;;3.10;86.85
57827;BME280;43656;57.746;11.780;2023-11-19T01:37:07;101214.69;;;3.09;87.59
57827;BME280;43656;57.746;11.780;2023-11-19T01:39:37;101207.72;;;3.08;87.72
57827;BME280;43656;57.746;11.780;2023-11-19T01:42:03;101199.44;;;3.11;87.35
57827;BME280;43656;57.746;11.780;2023-11-19T01:44:29;101199.03;;;3.06;88.06
57827;BME280;43656;57.746;11.780;2023-11-19T01:46:54;101192.59;;;3.18;87.62
57827;BME280;43656;57.746;11.780;2023-11-19T01:49:19;101193.44;;;2.99;88.23
57827;BME280;43656;57.746;11.780;2023-11-19T01:51:46;101189.78;;;3.10;88.00
57827;BME280;43656;57.746;11.780;2023-11-19T01:54:12;101182.53;;;3.02;87.92
57827;BME280;43656;57.746;11.780;2023-11-19T01:56:38;101172.28;;;3.17;88.24
57827;BME280;43656;57.746;11.780;2023-11-19T01:59:09;101167.66;;;3.29;87.26
57827;BME280;43656;57.746;11.780;2023-11-19T02:01:36;101163.44;;;3.26;87.95
57827;BME280;43656;57.746;11.780;2023-11-19T02:04:08;101150.19;;;3.07;88.14
57827;BME280;43656;57.746;11.780;2023-11-19T02:06:34;101151.28;;;3.24;87.49
57827;BME280;43656;57.746;11.780;2023-11-19T02:09:02;101150.72;;;3.30;88.42
57827;BME280;43656;57.746;11.780;2023-11-19T02:11:33;101126.69;;;2.93;88.41
57827;BME280;43656;57.746;11.780;2023-11-19T02:14:00;101143.97;;;3.36;88.32
57827;BME280;43656;57.746;11.780;2023-11-19T02:16:25;101127.22;;;3.25;87.99
57827;BME280;43656;57.746;11.780;2023-11-19T02:18:51;101120.94;;;3.54;87.18
57827;BME280;43656;57.746;11.780;2023-11-19T02:21:16;101119.81;;;3.19;87.85
57827;BME280;43656;57.746;11.780;2023-11-19T02:23:43;101117.53;;;3.24;88.97
57827;BME280;43656;57.746;11.780;2023-11-19T02:26:18;101115.31;;;3.20;87.94
57827;BME280;43656;57.746;11.780;2023-11-19T02:28:48;101109.13;;;3.39;87.47
57827;BME280;43656;57.746;11.780;2023-11-19T02:31:13;101095.19;;;3.08;88.43
57827;BME280;43656;57.746;11.780;2023-11-19T02:33:39;101092.25;;;3.01;89.51
57827;BME280;43656;57.746;11.780;2023-11-19T02:36:06;101088.06;;;3.08;89.56
57827;BME280;43656;57.746;11.780;2023-11-19T02:38:35;101076.56;;;3.17;89.27
57827;BME280;43656;57.746;11.780;2023-11-19T02:41:06;101059.09;;;3.15;88.85
57827;BME280;43656;57.746;11.780;2023-11-19T02:43:35;101069.38;;;3.27;88.47
57827;BME280;43656;57.746;11.780;2023-11-19T02:46:02;101042.63;;;3.01;88.56
57827;BME280;43656;57.746;11.780;2023-11-19T02:48:32;101060.28;;;3.30;88.12
57827;BME280;43656;57.746;11.780;2023-11-19T02:50:57;101063.78;;;3.30;88.24
57827;BME280;43656;57.746;11.780;2023-11-19T02:53:23;101049.22;;;3.35;88.59
57827;BME280;43656;57.746;11.780;2023-11-19T02:55:50;101055.13;;;3.28;88.84
57827;BME280;43656;57.746;11.780;2023-11-19T02:58:16;101048.03;;;3.47;88.11
57827;BME280;43656;57.746;11.780;2023-11-19T03:00:49;101025.22;;;3.07;88.30
57827;BME280;43656;57.746;11.780;2023-11-19T03:03:22;101039.03;;;3.20;87.69
57827;BME280;43656;57.746;11.780;2023-11-19T03:05:48;101024.28;;;3.08;88.44
57827;BME280;43656;57.746;11.780;2023-11-19T03:08:17;101025.53;;;3.41;87.53
57827;BME280;43656;57.746;11.780;2023-11-19T03:10:43;100992.91;;;3.12;87.89
57827;BME280;43656;57.746;11.780;2023-11-19T03:13:12;101005.69;;;3.36;88.03
57827;BME280;43656;57.746;11.780;2023-11-19T03:15:39;100998.47;;;3.46;88.07
57827;BME280;43656;57.746;11.780;2023-11-19T03:18:05;100987.88;;;3.36;87.12
57827;BME280;43656;57.746;11.780;2023-11-19T03:20:30;100990.75;;;3.25;87.89
57827;BME280;43656;57.746;11.780;2023-11-19T03:22:56;100978.03;;;3.46;87.90
57827;BME280;43656;57.746;11.780;2023-11-19T03:25:25;100975.53;;;3.45;87.79
57827;BME280;43656;57.746;11.780;2023-11-19T03:27:52;100965.66;;;3.27;87.21
57827;BME280;43656;57.746;11.780;2023-11-19T03:30:18;100969.66;;;3.14;88.77
57827;BME280;43656;57.746;11.780;2023-11-19T03:32:46;100950.88;;;3.25;87.90
57827;BME280;43656;57.746;11.780;2023-11-19T03:35:11;100942.09;;;3.15;88.43
57827;BME280;43656;57.746;11.780;2023-11-19T03:37:37;100950.50;;;3.38;87.38
57827;BME280;43656;57.746;11.780;2023-11-19T03:40:03;100930.31;;;3.17;87.59
57827;BME280;43656;57.746;11.780;2023-11-19T03:42:29;100904.69;;;2.98;88.52
57827;BME280;43656;57.746;11.780;2023-11-19T03:44:56;100929.38;;;3.36;87.96
57827;BME280;43656;57.746;11.780;2023-11-19T03:47:22;100912.47;;;3.27;88.14
57827;BME280;43656;57.746;11.780;2023-11-19T03:49:50;100912.34;;;3.29;88.35
57827;BME280;43656;57.746;11.780;2023-11-19T03:52:17;100901.81;;;3.10;88.61
57827;BME280;43656;57.746;11.780;2023-11-19T03:54:43;100902.34;;;3.13;89.02
57827;BME280;43656;57.746;11.780;2023-11-19T03:57:09;100895.72;;;3.45;87.67
57827;BME280;43656;57.746;11.780;2023-11-19T03:59:37;100896.69;;;3.44;88.43
57827;BME280;43656;57.746;11.780;2023-11-19T04:02:03;100901.34;;;3.42;87.12
57827;BME280;43656;57.746;11.780;2023-11-19T04:04:29;100895.31;;;3.40;86.60
57827;BME280;43656;57.746;11.780;2023-11-19T04:06:57;100885.63;;;3.21;87.90
57827;BME280;43656;57.746;11.780;2023-11-19T04:09:23;100905.94;;;3.22;88.01
57827;BME280;43656;57.746;11.780;2023-11-19T04:11:49;100887.34;;;3.40;88.24
57827;BME280;43656;57.746;11.780;2023-11-19T04:14:14;100897.75;;;3.33;88.07
57827;BME280;43656;57.746;11.780;2023-11-19T04:16:40;100878.38;;;3.41;87.14
57827;BME280;43656;57.746;11.780;2023-11-19T04:19:06;100884.72;;;3.58;87.21
57827;BME280;43656;57.746;11.780;2023-11-19T04:21:32;100879.13;;;3.33;86.94
57827;BME280;43656;57.746;11.780;2023-11-19T04:23:57;100879.28;;;3.32;88.49
57827;BME280;43656;57.746;11.780;2023-11-19T04:26:23;100871.09;;;3.43;87.44
57827;BME280;43656;57.746;11.780;2023-11-19T04:28:48;100853.16;;;3.45;86.69
57827;BME280;43656;57.746;11.780;2023-11-19T04:31:15;100864.00;;;3.34;87.80
57827;BME280;43656;57.746;11.780;2023-11-19T04:33:41;100859.00;;;3.30;87.91
57827;BME280;43656;57.746;11.780;2023-11-19T04:36:07;100856.09;;;3.24;88.88
57827;BME280;43656;57.746;11.780;2023-11-19T04:38:32;100848.28;;;3.40;87.09
57827;BME280;43656;57.746;11.780;2023-11-19T04:40:58;100850.34;;;3.28;88.35
57827;BME280;43656;57.746;11.780;2023-11-19T04:43:23;100846.28;;;3.24;88.90
57827;BME280;43656;57.746;11.780;2023-11-19T04:45:49;100817.50;;;3.02;89.04
57827;BME280;43656;57.746;11.780;2023-11-19T04:48:14;100847.16;;;3.25;88.30
57827;BME280;43656;57.746;11.780;2023-11-19T04:50:39;100845.31;;;3.25;88.66
57827;BME280;43656;57.746;11.780;2023-11-19T04:53:05;100803.50;;;3.00;88.50
57827;BME280;43656;57.746;11.780;2023-11-19T04:55:30;100833.81;;;3.07;88.97
57827;BME280;43656;57.746;11.780;2023-11-19T04:57:56;100790.34;;;2.80;89.60
57827;BME280;43656;57.746;11.780;2023-11-19T05:00:21;100808.00;;;3.17;88.62
57827;BME280;43656;57.746;11.780;2023-11-19T05:02:47;100814.59;;;3.13;89.24
57827;BME280;43656;57.746;11.780;2023-11-19T05:05:13;100808.94;;;3.08;89.20
57827;BME280;43656;57.746;11.780;2023-11-19T05:07:40;100808.81;;;3.18;88.82
57827;BME280;43656;57.746;11.780;2023-11-19T05:10:06;100810.53;;;3.19;89.09
57827;BME280;43656;57.746;11.780;2023-11-19T05:12:32;100794.16;;;3.14;89.22
57827;BME280;43656;57.746;11.780;2023-11-19T05:14:57;100809.06;;;3.24;89.17
57827;BME280;43656;57.746;11.780;2023-11-19T05:17:23;100804.84;;;3.32;89.32
57827;BME280;43656;57.746;11.780;2023-11-19T05:19:49;100805.66;;;3.32;89.01
57827;BME280;43656;57.746;11.780;2023-11-19T05:22:14;100802.47;;;3.28;89.02
57827;BME280;43656;57.746;11.780;2023-11-19T05:24:39;100801.94;;;3.25;89.63
57827;BME280;43656;57.746;11.780;2023-11-19T05:27:06;100806.09;;;3.10;90.40
57827;BME280;43656;57.746;11.780;2023-11-19T05:29:33;100797.75;;;3.22;89.84
57827;BME280;43656;57.746;11.780;2023-11-19T05:32:00;100793.81;;;3.26;89.61
57827;BME280;43656;57.746;11.780;2023-11-19T05:34:27;100796.75;;;3.23;90.45
57827;BME280;43656;57.746;11.780;2023-11-19T05:36:52;100772.47;;;3.18;89.81
57827;BME280;43656;57.746;11.780;2023-11-19T05:39:18;100791.22;;;3.35;89.16
57827;BME280;43656;57.746;11.780;2023-11-19T05:41:46;100790.16;;;3.27;89.47
57827;BME280;43656;57.746;11.780;2023-11-19T05:44:12;100787.31;;;3.47;88.61
57827;BME280;43656;57.746;11.780;2023-11-19T05:46:37;100775.88;;;3.28;89.40
57827;BME280;43656;57.746;11.780;2023-11-19T05:49:07;100782.41;;;3.52;89.13
57827;BME280;43656;57.746;11.780;2023-11-19T05:51:36;100780.97;;;3.40;90.68
57827;BME280;43656;57.746;11.780;2023-11-19T05:54:02;100771.66;;;3.44;90.42
57827;BME280;43656;57.746;11.780;2023-11-19T05:56:27;100761.19;;;3.42;90.63
57827;BME280;43656;57.746;11.780;2023-11-19T05:58:57;100769.44;;;3.57;90.12
57827;BME280;43656;57.746;11.780;2023-11-19T06:01:23;100771.75;;;3.52;91.04
57827;BME280;43656;57.746;11.780;2023-11-19T06:03:48;100763.63;;;3.36;91.47
57827;BME280;43656;57.746;11.780;2023-11-19T06:06:15;100761.06;;;3.70;90.81
57827;BME280;43656;57.746;11.780;2023-11-19T06:08:40;100752.94;;;3.71;90.74
57827;BME280;43656;57.746;11.780;2023-11-19T06:11:06;100756.25;;;3.47;91.13
57827;BME280;43656;57.746;11.780;2023-11-19T06:13:32;100750.31;;;3.80;90.73
57827;BME280;43656;57.746;11.780;2023-11-19T06:15:58;100753.88;;;3.88;90.60
57827;BME280;43656;57.746;11.780;2023-11-19T06:18:23;100753.59;;;3.73;91.53
57827;BME280;43656;57.746;11.780;2023-11-19T06:20:49;100749.50;;;3.79;91.30
57827;BME280;43656;57.746;11.780;2023-11-19T06:23:15;100731.97;;;3.68;90.40
57827;BME280;43656;57.746;11.780;2023-11-19T06:25:40;100741.88;;;3.58;93.04
57827;BME280;43656;57.746;11.780;2023-11-19T06:28:05;100748.84;;;3.59;91.77
57827;BME280;43656;57.746;11.780;2023-11-19T06:30:31;100728.28;;;3.43;92.64
57827;BME280;43656;57.746;11.780;2023-11-19T06:32:58;100740.19;;;3.83;91.25
57827;BME280;43656;57.746;11.780;2023-11-19T06:35:24;100742.84;;;3.57;92.14
57827;BME280;43656;57.746;11.780;2023-11-19T06:37:49;100711.31;;;3.62;92.28
57827;BME280;43656;57.746;11.780;2023-11-19T06:40:15;100698.34;;;3.67;92.11
57827;BME280;43656;57.746;11.780;2023-11-19T06:42:41;100715.41;;;3.83;92.18
57827;BME280;43656;57.746;11.780;2023-11-19T06:45:06;100711.72;;;3.75;91.86
57827;BME280;43656;57.746;11.780;2023-11-19T06:47:33;100703.84;;;3.66;92.67
57827;BME280;43656;57.746;11.780;2023-11-19T06:49:59;100716.94;;;3.59;94.32
57827;BME280;43656;57.746;11.780;2023-11-19T06:52:24;100695.88;;;3.74;93.84
57827;BME280;43656;57.746;11.780;2023-11-19T06:54:50;100686.75;;;3.50;94.71
57827;BME280;43656;57.746;11.780;2023-11-19T06:57:15;100696.13;;;3.55;95.08
57827;BME280;43656;57.746;11.780;2023-11-19T06:59:42;100693.88;;;3.68;93.29
57827;BME280;43656;57.746;11.780;2023-11-19T07:02:07;100696.56;;;4.02;92.30
57827;BME280;43656;57.746;11.780;2023-11-19T07:04:33;100681.31;;;3.78;92.20
57827;BME280;43656;57.746;11.780;2023-11-19T07:06:59;100667.88;;;3.88;91.79
57827;BME280;43656;57.746;11.780;2023-11-19T07:09:25;100682.88;;;3.97;92.07
57827;BME280;43656;57.746;11.780;2023-11-19T07:11:50;100673.28;;;4.04;91.59
57827;BME280;43656;57.746;11.780;2023-11-19T07:14:17;100678.31;;;3.81;92.67
57827;BME280;43656;57.746;11.780;2023-11-19T07:16:43;100667.38;;;3.58;95.42
57827;BME280;43656;57.746;11.780;2023-11-19T07:19:09;100649.81;;;3.73;93.60
57827;BME280;43656;57.746;11.780;2023-11-19T07:21:35;100669.84;;;3.86;95.02
57827;BME280;43656;57.746;11.780;2023-11-19T07:24:05;100668.16;;;4.11;93.63
57827;BME280;43656;57.746;11.780;2023-11-19T07:26:30;100656.50;;;4.12;93.72
57827;BME280;43656;57.746;11.780;2023-11-19T07:28:56;100656.03;;;3.82;95.36
57827;BME280;43656;57.746;11.780;2023-11-19T07:31:22;100662.81;;;4.11;94.31
57827;BME280;43656;57.746;11.780;2023-11-19T07:33:49;100663.38;;;3.88;95.82
57827;BME280;43656;57.746;11.780;2023-11-19T07:36:14;100661.88;;;4.28;93.51
57827;BME280;43656;57.746;11.780;2023-11-19T07:38:39;100653.38;;;4.24;92.72
57827;BME280;43656;57.746;11.780;2023-11-19T07:41:05;100659.34;;;4.18;94.30
57827;BME280;43656;57.746;11.780;2023-11-19T07:43:32;100659.81;;;4.14;94.01
57827;BME280;43656;57.746;11.780;2023-11-19T07:45:57;100648.69;;;4.18;94.20
57827;BME280;43656;57.746;11.780;2023-11-19T07:48:24;100641.72;;;4.34;93.74
57827;BME280;43656;57.746;11.780;2023-11-19T07:50:50;100653.75;;;4.46;93.18
57827;BME280;43656;57.746;11.780;2023-11-19T07:53:16;100635.56;;;4.33;93.27
57827;BME280;43656;57.746;11.780;2023-11-19T07:55:42;100645.81;;;4.54;92.36
57827;BME280;43656;57.746;11.780;2023-11-19T07:58:07;100637.94;;;4.44;92.52
57827;BME280;43656;57.746;11.780;2023-11-19T08:00:32;100641.94;;;4.57;92.17
57827;BME280;43656;57.746;11.780;2023-11-19T08:02:58;100652.25;;;4.43;93.18
57827;BME280;43656;57.746;11.780;2023-11-19T08:05:24;100642.72;;;4.24;94.04
57827;BME280;43656;57.746;11.780;2023-11-19T08:07:52;100641.84;;;4.16;94.34
57827;BME280;43656;57.746;11.780;2023-11-19T08:10:19;100627.75;;;4.32;93.07
57827;BME280;43656;57.746;11.780;2023-11-19T08:12:44;100633.47;;;4.61;92.01
57827;BME280;43656;57.746;11.780;2023-11-19T08:15:10;100643.13;;;4.54;93.05
57827;BME280;43656;57.746;11.780;2023-11-19T08:17:36;100640.91;;;4.25;94.50
57827;BME280;43656;57.746;11.780;2023-11-19T08:20:02;100628.25;;;4.35;94.29
57827;BME280;43656;57.746;11.780;2023-11-19T08:22:28;100633.44;;;4.45;93.91
57827;BME280;43656;57.746;11.780;2023-11-19T08:24:53;100630.28;;;4.50;94.49
57827;BME280;43656;57.746;11.780;2023-11-19T08:27:19;100633.09;;;4.32;94.84
57827;BME280;43656;57.746;11.780;2023-11-19T08:29:52;100624.22;;;4.23;95.47
57827;BME280;43656;57.746;11.780;2023-11-19T08:32:17;100625.28;;;4.46;95.48
57827;BME280;43656;57.746;11.780;2023-11-19T08:34:43;100635.78;;;4.56;94.25
57827;BME280;43656;57.746;11.780;2023-11-19T08:37:08;100614.44;;;4.40;95.37
57827;BME280;43656;57.746;11.780;2023-11-19T08:39:33;100606.13;;;4.35;95.26
57827;BME280;43656;57.746;11.780;2023-11-19T08:42:00;100602.50;;;4.60;94.68
57827;BME280;43656;57.746;11.780;2023-11-19T08:44:25;100604.47;;;4.66;94.64
57827;BME280;43656;57.746;11.780;2023-11-19T08:46:51;100606.81;;;4.69;93.61
57827;BME280;43656;57.746;11.780;2023-11-19T08:49:17;100608.34;;;4.64;95.59
57827;BME280;43656;57.746;11.780;2023-11-19T08:51:42;100597.16;;;4.52;95.20
57827;BME280;43656;57.746;11.780;2023-11-19T08:54:08;100598.50;;;4.48;96.18
57827;BME280;43656;57.746;11.780;2023-11-19T08:56:33;100607.34;;;4.65;96.30
57827;BME280;43656;57.746;11.780;2023-11-19T08:59:00;100606.84;;;4.78;94.77
57827;BME280;43656;57.746;11.780;2023-11-19T09:01:26;100600.69;;;4.77;94.37
57827;BME280;43656;57.746;11.780;2023-11-19T09:03:51;100597.34;;;4.91;94.30
57827;BME280;43656;57.746;11.780;2023-11-19T09:06:17;100582.34;;;4.66;94.20
57827;BME280;43656;57.746;11.780;2023-11-19T09:08:43;100568.00;;;5.00;92.72
57827;BME280;43656;57.746;11.780;2023-11-19T09:11:09;100576.84;;;4.76;93.24
57827;BME280;43656;57.746;11.780;2023-11-19T09:13:37;100581.63;;;5.21;92.46
57827;BME280;43656;57.746;11.780;2023-11-19T09:16:03;100580.97;;;5.27;91.80
57827;BME280;43656;57.746;11.780;2023-11-19T09:18:29;100585.13;;;5.30;91.53
57827;BME280;43656;57.746;11.780;2023-11-19T09:20:54;100578.47;;;5.09;91.99
57827;BME280;43656;57.746;11.780;2023-11-19T09:23:20;100583.16;;;4.66;95.43
57827;BME280;43656;57.746;11.780;2023-11-19T09:25:45;100587.84;;;4.97;94.41
57827;BME280;43656;57.746;11.780;2023-11-19T09:28:11;100581.66;;;5.05;94.65
57827;BME280;43656;57.746;11.780;2023-11-19T09:30:36;100577.13;;;5.22;93.00
57827;BME280;43656;57.746;11.780;2023-11-19T09:33:01;100572.13;;;5.27;92.20
57827;BME280;43656;57.746;11.780;2023-11-19T09:35:27;100572.78;;;5.29;92.75
57827;BME280;43656;57.746;11.780;2023-11-19T09:37:53;100571.47;;;5.16;93.82
57827;BME280;43656;57.746;11.780;2023-11-19T09:40:18;100574.47;;;5.30;93.18
57827;BME280;43656;57.746;11.780;2023-11-19T09:42:44;100576.47;;;5.19;93.24
57827;BME280;43656;57.746;11.780;2023-11-19T09:45:15;100568.59;;;5.34;92.74
57827;BME280;43656;57.746;11.780;2023-11-19T09:47:45;100568.09;;;5.39;92.76
57827;BME280;43656;57.746;11.780;2023-11-19T09:50:17;100556.16;;;5.10;94.33
57827;BME280;43656;57.746;11.780;2023-11-19T09:52:44;100565.38;;;5.55;92.81
57827;BME280;43656;57.746;11.780;2023-11-19T09:55:10;100565.66;;;5.69;91.65
57827;BME280;43656;57.746;11.780;2023-11-19T09:57:40;100543.75;;;5.34;92.75
57827;BME280;43656;57.746;11.780;2023-11-19T10:00:09;100548.06;;;5.43;92.96
57827;BME280;43656;57.746;11.780;2023-11-19T10:02:37;100526.84;;;4.94;94.29
57827;BME280;43656;57.746;11.780;2023-11-19T10:05:07;100542.44;;;5.30;94.43
57827;BME280;43656;57.746;11.780;2023-11-19T10:07:33;100533.25;;;5.80;91.79
57827;BME280;43656;57.746;11.780;2023-11-19T10:10:00;100526.50;;;5.13;93.77
57827;BME280;43656;57.746;11.780;2023-11-19T10:12:29;100508.16;;;5.58;92.63
57827;BME280;43656;57.746;11.780;2023-11-19T10:14:57;100538.25;;;5.83;91.98
57827;BME280;43656;57.746;11.780;2023-11-19T10:17:29;100505.88;;;5.78;90.68
57827;BME280;43656;57.746;11.780;2023-11-19T10:19:57;100526.22;;;5.79;92.01
57827;BME280;43656;57.746;11.780;2023-11-19T10:22:23;100529.97;;;5.61;91.91
57827;BME280;43656;57.746;11.780;2023-11-19T10:24:50;100511.03;;;5.48;92.62
57827;BME280;43656;57.746;11.780;2023-11-19T10:27:16;100519.78;;;6.04;91.14
57827;BME280;43656;57.746;11.780;2023-11-19T10:29:45;100513.53;;;5.50;92.68
57827;BME280;43656;57.746;11.780;2023-11-19T10:32:12;100520.75;;;5.72;93.36
57827;BME280;43656;57.746;11.780;2023-11-19T10:34:37;100521.50;;;5.89;92.07
57827;BME280;43656;57.746;11.780;2023-11-19T10:37:04;100504.50;;;5.82;91.07
57827;BME280;43656;57.746;11.780;2023-11-19T10:39:53;100522.03;;;5.84;91.57
57827;BME280;43656;57.746;11.780;2023-11-19T10:42:21;100506.97;;;5.92;90.59
57827;BME280;43656;57.746;11.780;2023-11-19T10:44:46;100512.03;;;5.78;92.68
57827;BME280;43656;57.746;11.780;2023-11-19T10:47:14;100503.88;;;5.80;92.71
57827;BME280;43656;57.746;11.780;2023-11-19T10:49:39;100500.19;;;6.12;90.10
57827;BME280;43656;57.746;11.780;2023-11-19T10:52:08;100500.38;;;6.10;90.52
57827;BME280;43656;57.746;11.780;2023-11-19T10:54:34;100507.91;;;6.30;89.80
57827;BME280;43656;57.746;11.780;2023-11-19T10:57:01;100497.13;;;6.23;89.59
57827;BME280;43656;57.746;11.780;2023-11-19T10:59:31;100481.78;;;5.94;90.79
57827;BME280;43656;57.746;11.780;2023-11-19T11:02:03;100496.69;;;6.11;90.26
57827;BME280;43656;57.746;11.780;2023-11-19T11:04:33;100491.78;;;6.23;90.07
57827;BME280;43656;57.746;11.780;2023-11-19T11:07:05;100489.97;;;6.16;90.72
57827;BME280;43656;57.746;11.780;2023-11-19T11:09:31;100490.88;;;5.77;91.78
57827;BME280;43656;57.746;11.780;2023-11-19T11:11:59;100491.34;;;6.11;91.03
57827;BME280;43656;57.746;11.780;2023-11-19T11:14:25;100485.28;;;6.18;90.67
57827;BME280;43656;57.746;11.780;2023-11-19T11:16:53;100492.59;;;6.01;90.53
57827;BME280;43656;57.746;11.780;2023-11-19T11:19:19;100491.22;;;6.28;89.76
57827;BME280;43656;57.746;11.780;2023-11-19T11:21:50;100488.66;;;6.11;90.52
57827;BME280;43656;57.746;11.780;2023-11-19T11:29:47;100468.94;;;6.35;89.62
57827;BME280;43656;57.746;11.780;2023-11-19T11:38:04;100469.22;;;6.26;90.97
57827;BME280;43656;57.746;11.780;2023-11-19T11:40:32;100453.97;;;6.49;89.57
57827;BME280;43656;57.746;11.780;2023-11-19T11:42:57;100464.44;;;6.36;90.21
57827;BME280;43656;57.746;11.780;2023-11-19T11:45:36;100454.84;;;6.27;90.48
57827;BME280;43656;57.746;11.780;2023-11-19T11:50:32;100454.38;;;6.76;88.79
57827;BME280;43656;57.746;11.780;2023-11-19T11:55:37;100433.88;;;6.53;88.05
57827;BME280;43656;57.746;11.780;2023-11-19T11:58:03;100449.97;;;6.83;88.34
57827;BME280;43656;57.746;11.780;2023-11-19T12:03:01;100444.69;;;6.75;87.81
57827;BME280;43656;57.746;11.780;2023-11-19T12:05:27;100451.78;;;6.68;88.79
57827;BME280;43656;57.746;11.780;2023-11-19T12:07:55;100444.72;;;6.90;87.52
57827;BME280;43656;57.746;11.780;2023-11-19T12:10:21;100452.34;;;7.07;86.49
57827;BME280;43656;57.746;11.780;2023-11-19T12:12:47;100436.47;;;6.62;88.50
57827;BME280;43656;57.746;11.780;2023-11-19T12:15:12;100431.97;;;6.92;87.64
57827;BME280;43656;57.746;11.780;2023-11-19T12:17:49;100432.72;;;7.00;87.55
57827;BME280;43656;57.746;11.780;2023-11-19T12:20:16;100429.50;;;6.90;87.99
57827;BME280;43656;57.746;11.780;2023-11-19T12:22:43;100432.31;;;7.18;86.71
57827;BME280;43656;57.746;11.780;2023-11-19T12:25:10;100436.50;;;6.91;86.96
57827;BME280;43656;57.746;11.780;2023-11-19T12:27:39;100416.50;;;6.72;86.89
57827;BME280;43656;57.746;11.780;2023-11-19T12:30:06;100431.31;;;7.04;87.66
57827;BME280;43656;57.746;11.780;2023-11-19T12:32:42;100433.00;;;7.05;86.05
57827;BME280;43656;57.746;11.780;2023-11-19T12:35:09;100428.66;;;7.19;87.06
57827;BME280;43656;57.746;11.780;2023-11-19T12:40:14;100423.31;;;7.19;86.09
57827;BME280;43656;57.746;11.780;2023-11-19T12:42:40;100429.28;;;7.21;85.78
57827;BME280;43656;57.746;11.780;2023-11-19T12:45:06;100426.88;;;7.12;85.29
57827;BME280;43656;57.746;11.780;2023-11-19T12:47:33;100393.22;;;7.17;85.34
57827;BME280;43656;57.746;11.780;2023-11-19T12:49:58;100387.25;;;6.71;85.17
57827;BME280;43656;57.746;11.780;2023-11-19T12:52:24;100422.09;;;7.22;85.08
57827;BME280;43656;57.746;11.780;2023-11-19T12:54:50;100421.50;;;7.41;84.90
57827;BME280;43656;57.746;11.780;2023-11-19T12:57:16;100405.44;;;7.41;83.71
57827;BME280;43656;57.746;11.780;2023-11-19T12:59:42;100419.69;;;7.27;85.06
57827;BME280;43656;57.746;11.780;2023-11-19T13:02:08;100413.63;;;7.54;83.81
57827;BME280;43656;57.746;11.780;2023-11-19T13:04:33;100418.03;;;7.26;84.01
57827;BME280;43656;57.746;11.780;2023-11-19T13:07:00;100410.25;;;7.31;84.01
57827;BME280;43656;57.746;11.780;2023-11-19T13:09:28;100408.38;;;7.46;83.27